Terminal Aerodrome Forecast
Issued by NWS Nashville, TN

Home | Current Version | Previous Version | Text Only | Print | Product List | Glossary On
Versions: 1 2 3 4 5 6 7 8 9 10 11 12 13 14 15 16 17 18 19 20 21 22 23 24 25 26 27 28 29 30
000
FTUS44 KOHX 181527 AAA
TAFCSV
TAF AMD
KCSV 181527Z 1815/1912 18011G20KT P6SM BKN030
     FM190400 18017G29KT 2SM TSRA BR BKN025CB OVC050
     FM190900 21013G22KT 5SM -SHRA OVC007=

USA.gov is the U.S. government's official web portal to all federal, state and local government web resources and services.